Terminal Aerodrome Forecast
Issued by NWS Portland, OR

Home | Current Version | Previous Version | Text Only | Print | Product List | Glossary On
Versions: 1 2 3 4 5 6 7 8 9 10 11 12 13 14 15
000
FTUS46 KPQR 251126
TAFSLE
TAF
KSLE 251126Z 2512/2612 VRB03KT P6SM SKC
     FM251700 36007KT P6SM SKC
     FM252100 01012KT P6SM SKC
     FM260200 01007KT P6SM SKC=

USA.gov is the U.S. government's official web portal to all federal, state and local government web resources and services.